Time;durP1;ratioP1;P1;durP2;ratioP2;P2;SDS_P1;SDS_P2;PMS_P1;PMS_P2;Temp;Humidity;BMP_temperature;BMP_pressure;BME280_temperature;BME280_humidity;BME280_pressure;Samples;Min_cycle;Max_cycle;Signal;HPM_P1;HPM_P2
2023/06/10 00:00:41;;;;;;;13.40;12.00;;;20.20;99.90;;;;;;5095584;28;20496;-82
2023/06/10 00:03:12;;;;;;;15.30;13.70;;;20.20;99.90;;;;;;5095336;28;20908;-81
2023/06/10 00:05:38;;;;;;;14.63;13.10;;;20.20;99.90;;;;;;5095486;28;20430;-81
2023/06/10 00:08:08;;;;;;;13.30;12.00;;;20.10;99.90;;;;;;5093919;28;20984;-84
2023/06/10 00:10:35;;;;;;;13.67;12.23;;;20.10;99.90;;;;;;5094006;28;20451;-83
2023/06/10 00:13:02;;;;;;;14.50;13.00;;;20.10;99.90;;;;;;5094053;28;20763;-84
2023/06/10 00:15:28;;;;;;;16.17;14.47;;;20.20;99.90;;;;;;5095159;28;20436;-84
2023/06/10 00:17:54;;;;;;;14.53;13.03;;;20.20;99.90;;;;;;5095304;28;20818;-83
2023/06/10 00:20:23;;;;;;;15.33;13.73;;;20.10;99.90;;;;;;5093765;28;20249;-83
2023/06/10 00:22:49;;;;;;;15.60;14.00;;;20.10;99.90;;;;;;5093913;28;20789;-84
2023/06/10 00:25:15;;;;;;;15.73;14.13;;;20.10;99.90;;;;;;5094925;28;20478;-83
2023/06/10 00:27:41;;;;;;;16.40;14.70;;;20.10;99.90;;;;;;5093921;28;20989;-83
2023/06/10 00:30:07;;;;;;;19.13;14.87;;;20.10;99.90;;;;;;5094719;28;20262;-83
2023/06/10 00:32:36;;;;;;;14.23;12.67;;;20.10;99.90;;;;;;5093946;28;20186;-83
2023/06/10 00:35:03;;;;;;;17.23;14.60;;;20.10;99.90;;;;;;5094686;28;20430;-83
2023/06/10 00:37:30;;;;;;;15.00;13.43;;;20.00;99.90;;;;;;5093526;28;20426;-84
2023/06/10 00:39:56;;;;;;;14.77;13.27;;;20.00;99.90;;;;;;5093741;28;20485;-84
2023/06/10 00:42:24;;;;;;;14.07;12.63;;;20.00;99.90;;;;;;5095266;28;20491;-84
2023/06/10 00:44:55;;;;;;;12.60;11.40;;;20.00;99.90;;;;;;5094695;28;20432;-84
2023/06/10 00:47:21;;;;;;;15.70;13.67;;;19.90;99.90;;;;;;5095011;28;20467;-84
2023/06/10 00:49:47;;;;;;;15.13;13.03;;;19.90;99.90;;;;;;5094660;28;20911;-84
2023/06/10 00:52:15;;;;;;;14.93;13.33;;;19.90;99.90;;;;;;5093282;28;20419;-83
2023/06/10 00:54:41;;;;;;;14.40;12.90;;;19.80;99.90;;;;;;5094617;28;20415;-84
2023/06/10 00:57:07;;;;;;;14.40;13.00;;;19.80;99.90;;;;;;5094927;28;20419;-83
2023/06/10 00:59:33;;;;;;;15.80;13.60;;;19.80;99.90;;;;;;5094476;28;20414;-83
2023/06/10 01:01:59;;;;;;;13.70;12.30;;;19.80;99.90;;;;;;5093278;28;20183;-84
2023/06/10 01:04:24;;;;;;;15.10;13.43;;;19.80;99.90;;;;;;5093603;28;20867;-83
2023/06/10 01:07:19;;;;;;;15.33;13.83;;;19.80;99.90;;;;;;5092808;28;20628;-85
2023/06/10 01:09:49;;;;;;;14.20;12.70;;;19.80;99.90;;;;;;5089815;28;20588;-84
2023/06/10 01:12:37;;;;;;;15.20;13.60;;;19.80;99.90;;;;;;5093286;28;20471;-84
2023/06/10 01:15:04;;;;;;;20.27;14.00;;;19.70;99.90;;;;;;5093037;28;20440;-83
2023/06/10 01:17:30;;;;;;;14.70;12.83;;;19.70;99.90;;;;;;5093195;28;20436;-83
2023/06/10 01:19:57;;;;;;;13.90;12.30;;;19.70;99.90;;;;;;5092813;28;20436;-84
2023/06/10 01:22:32;;;;;;;13.90;12.40;;;19.60;99.90;;;;;;5094781;28;20917;-84
2023/06/10 01:24:58;;;;;;;13.33;11.70;;;19.60;99.90;;;;;;5092697;28;20470;-83
2023/06/10 01:27:29;;;;;;;13.00;11.60;;;19.60;99.90;;;;;;5094489;28;20518;-85
2023/06/10 01:30:20;;;;;;;13.13;11.70;;;19.60;99.90;;;;;;5092759;28;20437;-84
2023/06/10 01:32:51;;;;;;;14.13;12.30;;;19.50;99.90;;;;;;5093917;28;20928;-84
2023/06/10 01:35:17;;;;;;;12.63;11.40;;;19.50;99.90;;;;;;5092670;28;20431;-83
2023/06/10 01:37:48;;;;;;;13.83;11.87;;;19.50;99.90;;;;;;5092679;28;20853;-84
2023/06/10 01:40:15;;;;;;;13.17;11.77;;;19.50;99.90;;;;;;5094055;28;20462;-83
2023/06/10 01:42:41;;;;;;;13.37;12.03;;;19.50;99.90;;;;;;5092681;28;20924;-84
2023/06/10 01:45:07;;;;;;;13.60;12.00;;;19.50;99.90;;;;;;5092522;28;20450;-83
2023/06/10 01:47:32;;;;;;;14.27;12.77;;;19.50;99.90;;;;;;5094252;28;20811;-83
2023/06/10 01:49:58;;;;;;;13.53;12.13;;;19.50;99.90;;;;;;5092442;28;20450;-84
2023/06/10 01:52:24;;;;;;;13.50;12.10;;;19.50;99.90;;;;;;5094262;28;20198;-83
2023/06/10 01:54:49;;;;;;;13.17;10.50;;;19.50;99.90;;;;;;5092928;28;20576;-84
2023/06/10 01:57:15;;;;;;;13.63;12.20;;;19.50;99.90;;;;;;5092625;28;20185;-84
2023/06/10 01:59:44;;;;;;;14.00;12.60;;;19.40;99.90;;;;;;5092443;28;20196;-84
2023/06/10 02:02:09;;;;;;;13.33;11.93;;;19.40;99.90;;;;;;5093326;28;20459;-84
2023/06/10 02:04:35;;;;;;;13.17;11.80;;;19.40;99.90;;;;;;5093638;28;20411;-84
2023/06/10 02:07:03;;;;;;;12.60;11.03;;;19.40;99.90;;;;;;5093917;28;20220;-84
2023/06/10 02:09:30;;;;;;;12.67;11.33;;;19.40;99.90;;;;;;5092253;28;20262;-84
2023/06/10 02:11:55;;;;;;;13.80;12.00;;;19.40;99.90;;;;;;5092343;28;20983;-84
2023/06/10 02:14:21;;;;;;;14.87;10.37;;;19.40;99.90;;;;;;5093598;28;20403;-83
2023/06/10 02:16:47;;;;;;;11.40;10.27;;;19.30;99.90;;;;;;5096661;28;20208;-83
2023/06/10 02:19:13;;;;;;;11.97;10.70;;;19.30;99.90;;;;;;5096407;28;20705;-83
2023/06/10 02:21:39;;;;;;;11.33;10.13;;;19.10;99.90;;;;;;5097904;28;20526;-83
2023/06/10 02:24:05;;;;;;;12.10;10.90;;;19.10;99.90;;;;;;5097227;28;21042;-84
2023/06/10 02:26:31;;;;;;;13.17;11.80;;;19.10;99.90;;;;;;5097456;28;20736;-83
2023/06/10 02:28:57;;;;;;;15.43;12.33;;;19.10;99.90;;;;;;5096042;28;20429;-83
2023/06/10 02:31:24;;;;;;;12.50;11.07;;;19.00;99.90;;;;;;5096011;28;20444;-84
2023/06/10 02:33:49;;;;;;;14.80;11.90;;;19.00;99.90;;;;;;5097286;28;20183;-82
2023/06/10 02:36:15;;;;;;;13.47;11.33;;;18.90;99.90;;;;;;5095978;28;20461;-83
2023/06/10 02:38:41;;;;;;;12.13;10.83;;;19.00;99.90;;;;;;5097264;28;20172;-84
2023/06/10 02:41:07;;;;;;;12.43;11.13;;;19.00;99.90;;;;;;5097262;28;20580;-84
2023/06/10 02:43:32;;;;;;;13.83;11.50;;;19.00;99.90;;;;;;5096956;28;20422;-83
2023/06/10 02:45:58;;;;;;;12.53;11.13;;;19.00;99.90;;;;;;5097258;28;20207;-83
2023/06/10 02:48:24;;;;;;;12.17;10.83;;;19.00;99.90;;;;;;5095738;28;20298;-83
2023/06/10 02:50:50;;;;;;;13.47;11.00;;;19.00;99.90;;;;;;5096991;28;20560;-83
2023/06/10 02:53:16;;;;;;;11.97;10.67;;;19.00;99.90;;;;;;5095774;28;20510;-84
2023/06/10 02:55:42;;;;;;;16.17;11.37;;;19.00;99.90;;;;;;5096851;28;20275;-84
2023/06/10 02:58:08;;;;;;;13.57;11.30;;;19.00;99.90;;;;;;5096790;28;20501;-83
2023/06/10 03:00:34;;;;;;;16.13;12.00;;;19.00;99.90;;;;;;5095549;28;20526;-84
2023/06/10 03:03:02;;;;;;;11.80;10.63;;;19.00;99.90;;;;;;5096586;28;20212;-83
2023/06/10 03:05:28;;;;;;;13.47;12.07;;;19.00;99.90;;;;;;5096614;28;20181;-83
2023/06/10 03:07:54;;;;;;;12.70;10.87;;;19.00;99.90;;;;;;5095267;28;20479;-83
2023/06/10 03:10:20;;;;;;;13.37;10.80;;;19.00;99.90;;;;;;5096540;28;20437;-84
2023/06/10 03:12:45;;;;;;;13.57;10.63;;;19.00;99.90;;;;;;5096681;28;20185;-83
2023/06/10 03:15:11;;;;;;;14.90;12.10;;;18.90;99.90;;;;;;5095210;28;20209;-84
2023/06/10 03:17:37;;;;;;;11.20;9.40;;;18.90;99.90;;;;;;5097021;28;20178;-83
2023/06/10 03:20:05;;;;;;;11.70;9.80;;;18.80;99.90;;;;;;5095111;28;20288;-83
2023/06/10 03:22:31;;;;;;;10.17;8.70;;;18.80;99.90;;;;;;5095155;28;20575;-83
2023/06/10 03:24:57;;;;;;;11.47;9.47;;;18.70;99.90;;;;;;5094807;28;20454;-83
2023/06/10 03:27:22;;;;;;;13.67;9.63;;;18.70;99.90;;;;;;5095669;28;20217;-83
2023/06/10 03:29:48;;;;;;;10.10;9.00;;;18.60;99.90;;;;;;5094899;28;20426;-83
2023/06/10 03:32:14;;;;;;;12.00;9.20;;;18.60;99.90;;;;;;5095202;28;20187;-84
2023/06/10 03:34:40;;;;;;;12.50;10.60;;;18.60;99.90;;;;;;5094856;28;20268;-83
2023/06/10 03:37:06;;;;;;;11.90;10.40;;;18.60;99.90;;;;;;5094972;28;20180;-84
2023/06/10 03:39:32;;;;;;;11.03;9.80;;;18.60;99.90;;;;;;5094683;28;20486;-83
2023/06/10 03:41:58;;;;;;;12.97;9.53;;;18.60;99.90;;;;;;5096311;28;20170;-83
2023/06/10 03:44:27;;;;;;;12.57;11.30;;;18.60;99.90;;;;;;5094685;28;20417;-82
2023/06/10 03:46:54;;;;;;;11.60;10.37;;;18.60;99.90;;;;;;5094683;28;20548;-83
2023/06/10 03:49:19;;;;;;;13.63;10.23;;;18.60;99.90;;;;;;5094609;28;20406;-83
2023/06/10 03:51:45;;;;;;;12.00;10.13;;;18.70;99.90;;;;;;5096035;28;20945;-83
2023/06/10 03:54:11;;;;;;;12.03;10.73;;;18.70;99.90;;;;;;5095769;28;20255;-84
2023/06/10 03:56:36;;;;;;;12.60;10.30;;;18.70;99.90;;;;;;5094520;28;20221;-83
2023/06/10 03:59:02;;;;;;;11.30;10.17;;;18.80;99.90;;;;;;5095729;28;20261;-83
2023/06/10 04:01:28;;;;;;;12.07;9.93;;;18.80;99.90;;;;;;5094391;28;20673;-84
2023/06/10 04:03:54;;;;;;;12.60;10.90;;;18.90;99.90;;;;;;5094309;28;20187;-84
2023/06/10 04:06:22;;;;;;;13.10;11.53;;;18.80;99.90;;;;;;5095293;28;20207;-83
2023/06/10 04:08:48;;;;;;;12.93;10.73;;;18.90;99.90;;;;;;5094174;28;20435;-84
2023/06/10 04:11:13;;;;;;;14.60;11.80;;;18.90;99.90;;;;;;5095545;28;20535;-83
2023/06/10 04:13:39;;;;;;;15.93;9.63;;;18.90;99.90;;;;;;5095422;28;20180;-83
2023/06/10 04:16:05;;;;;;;12.50;10.90;;;19.00;99.90;;;;;;5093951;28;20211;-83
2023/06/10 04:18:30;;;;;;;12.90;11.53;;;19.00;99.90;;;;;;5093966;28;20184;-84
2023/06/10 04:20:56;;;;;;;11.73;10.50;;;19.10;99.90;;;;;;5095085;28;20458;-84
2023/06/10 04:23:22;;;;;;;14.03;11.60;;;19.10;99.90;;;;;;5095199;28;20194;-83
2023/06/10 04:25:48;;;;;;;12.53;11.07;;;19.10;99.90;;;;;;5094900;28;20453;-84
2023/06/10 04:28:14;;;;;;;17.10;12.20;;;19.20;99.90;;;;;;5095092;28;20369;-84
2023/06/10 04:30:39;;;;;;;15.13;12.67;;;19.20;99.90;;;;;;5095045;28;20215;-84
2023/06/10 04:33:08;;;;;;;14.20;12.37;;;19.30;99.90;;;;;;5095147;28;20428;-83
2023/06/10 04:35:33;;;;;;;15.17;11.80;;;19.30;99.90;;;;;;5093639;28;20286;-83
2023/06/10 04:37:59;;;;;;;16.10;12.57;;;19.40;99.90;;;;;;5094821;28;20502;-84
2023/06/10 04:40:25;;;;;;;15.57;12.50;;;19.40;99.90;;;;;;5094548;28;20199;-83
2023/06/10 04:42:51;;;;;;;15.07;13.00;;;19.50;99.90;;;;;;5094866;28;20404;-84
2023/06/10 04:45:17;;;;;;;20.70;13.70;;;19.50;99.90;;;;;;5094735;28;20482;-83
2023/06/10 04:47:43;;;;;;;19.63;13.53;;;19.50;99.90;;;;;;5095082;28;20206;-83
2023/06/10 04:50:09;;;;;;;15.77;12.90;;;19.60;99.90;;;;;;5093370;28;20471;-84
2023/06/10 04:52:34;;;;;;;17.57;13.70;;;19.70;99.90;;;;;;5093675;28;20463;-84
2023/06/10 04:55:00;;;;;;;19.93;14.13;;;19.70;99.90;;;;;;5094540;28;20427;-84
2023/06/10 04:57:26;;;;;;;17.03;13.53;;;19.80;99.90;;;;;;5094492;28;20544;-83
2023/06/10 04:59:52;;;;;;;17.87;14.23;;;19.80;99.90;;;;;;5094461;28;20218;-83
2023/06/10 05:02:18;;;;;;;17.07;14.00;;;19.90;99.90;;;;;;5093255;28;20271;-84
2023/06/10 05:04:43;;;;;;;17.43;13.60;;;20.00;99.90;;;;;;5094553;28;20924;-83
2023/06/10 05:07:09;;;;;;;17.67;14.07;;;20.00;99.90;;;;;;5093274;28;20273;-84
2023/06/10 05:09:34;;;;;;;20.77;14.00;;;20.10;99.90;;;;;;5093060;28;20278;-84
2023/06/10 05:12:00;;;;;;;15.50;13.20;;;20.10;99.90;;;;;;5093000;28;20186;-83
2023/06/10 05:14:27;;;;;;;15.70;12.80;;;20.20;99.90;;;;;;5092983;28;20181;-83
2023/06/10 05:16:52;;;;;;;19.73;14.97;;;20.20;99.90;;;;;;5093088;28;20421;-83
2023/06/10 05:19:19;;;;;;;21.63;15.53;;;20.30;99.90;;;;;;5094236;28;20432;-84
2023/06/10 05:21:45;;;;;;;19.13;14.80;;;20.40;99.90;;;;;;5092995;28;20606;-84
2023/06/10 05:24:11;;;;;;;17.33;14.17;;;20.40;99.90;;;;;;5094164;28;20490;-83
2023/06/10 05:26:41;;;;;;;17.03;14.10;;;20.50;99.90;;;;;;5094284;28;20577;-84
2023/06/10 05:29:08;;;;;;;18.10;14.57;;;20.50;99.90;;;;;;5092732;28;20997;-84
2023/06/10 05:31:33;;;;;;;19.00;15.00;;;20.50;99.90;;;;;;5092962;28;20881;-84
2023/06/10 05:33:59;;;;;;;18.30;15.60;;;20.60;99.90;;;;;;5097772;28;20408;-83
2023/06/10 05:36:27;;;;;;;19.40;14.60;;;20.70;99.90;;;;;;5113152;28;20227;-84
2023/06/10 05:38:53;;;;;;;19.80;15.10;;;20.80;99.90;;;;;;5096110;28;20267;-84
2023/06/10 05:41:18;;;;;;;17.17;14.77;;;20.80;99.90;;;;;;5126796;27;20538;-84
2023/06/10 05:43:44;;;;;;;18.10;13.97;;;21.00;99.90;;;;;;5129368;28;20270;-84
2023/06/10 05:46:10;;;;;;;18.57;14.67;;;21.00;99.90;;;;;;5113839;28;20252;-83
2023/06/10 05:48:35;;;;;;;15.10;13.50;;;21.10;99.90;;;;;;5112999;28;20229;-83
2023/06/10 05:51:01;;;;;;;17.07;14.80;;;21.20;99.90;;;;;;5112278;28;20199;-84
2023/06/10 05:53:27;;;;;;;15.90;13.73;;;21.20;99.90;;;;;;5103238;28;20531;-81
2023/06/10 05:55:57;;;;;;;20.20;15.17;;;21.30;99.90;;;;;;5111994;28;20200;-81
2023/06/10 05:58:23;;;;;;;18.43;14.43;;;21.40;99.90;;;;;;5112477;28;20180;-81
2023/06/10 06:00:49;;;;;;;20.43;14.50;;;21.40;99.90;;;;;;5112687;28;20519;-81
2023/06/10 06:03:15;;;;;;;24.87;17.47;;;21.50;99.90;;;;;;5111097;28;20510;-83
2023/06/10 06:05:40;;;;;;;83.03;27.70;;;21.50;99.90;;;;;;5112642;28;20527;-81
2023/06/10 06:08:07;;;;;;;16.53;13.10;;;21.60;99.90;;;;;;5112578;28;20252;-81
2023/06/10 06:10:33;;;;;;;15.70;13.80;;;21.50;99.90;;;;;;5114290;28;20656;-81
2023/06/10 06:13:00;;;;;;;16.17;13.03;;;21.50;99.90;;;;;;5103232;28;20425;-85
2023/06/10 06:15:25;;;;;;;15.17;12.73;;;21.50;99.90;;;;;;5093261;28;20432;-84
2023/06/10 06:17:52;;;;;;;17.30;12.83;;;21.50;99.90;;;;;;5126586;28;20798;-83
2023/06/10 06:20:19;;;;;;;15.53;12.97;;;21.50;99.90;;;;;;5093319;28;20237;-85
2023/06/10 06:22:45;;;;;;;15.53;13.30;;;21.60;99.90;;;;;;5129322;28;20416;-84
2023/06/10 06:25:10;;;;;;;15.83;12.97;;;21.60;99.90;;;;;;5113574;28;20828;-85
2023/06/10 06:27:36;;;;;;;13.90;12.43;;;21.60;99.90;;;;;;5114149;28;20218;-83
2023/06/10 06:30:02;;;;;;;14.90;12.07;;;21.60;99.90;;;;;;5101833;28;20626;-83
2023/06/10 06:32:27;;;;;;;18.40;13.60;;;21.70;99.90;;;;;;5091795;28;20204;-85
2023/06/10 06:34:54;;;;;;;14.80;13.20;;;21.70;99.90;;;;;;5092984;28;20196;-88
2023/06/10 06:37:24;;;;;;;15.20;13.10;;;21.70;99.90;;;;;;5125174;28;20581;-82
2023/06/10 06:39:53;;;;;;;17.17;12.40;;;21.70;99.90;;;;;;5124756;28;20532;-84
2023/06/10 06:42:22;;;;;;;14.17;12.03;;;21.80;99.90;;;;;;5124376;28;20416;-80
2023/06/10 06:44:48;;;;;;;12.77;11.40;;;21.90;99.90;;;;;;5092443;28;20440;-87
2023/06/10 06:47:13;;;;;;;14.57;11.00;;;22.00;99.90;;;;;;5125268;28;20835;-85
2023/06/10 06:49:39;;;;;;;14.60;10.30;;;21.90;99.90;;;;;;5101349;28;20184;-83
2023/06/10 06:52:05;;;;;;;12.60;11.30;;;22.00;99.90;;;;;;5093026;28;20938;-83
2023/06/10 06:54:31;;;;;;;12.00;10.67;;;22.00;99.90;;;;;;5126000;28;20637;-84
2023/06/10 06:56:57;;;;;;;12.30;10.63;;;22.10;99.90;;;;;;5092932;28;20416;-83
2023/06/10 06:59:23;;;;;;;12.27;10.40;;;22.20;99.90;;;;;;5100240;28;20266;-82
2023/06/10 07:01:49;;;;;;;12.00;7.93;;;22.20;99.90;;;;;;5113731;28;20192;-81
2023/06/10 07:04:15;;;;;;;11.23;9.90;;;22.30;99.90;;;;;;5116553;28;20852;-80
2023/06/10 07:06:41;;;;;;;8.80;7.90;;;22.40;99.90;;;;;;5111337;28;20242;-82
2023/06/10 07:09:10;;;;;;;12.00;8.93;;;22.50;99.90;;;;;;5114664;28;20932;-82
2023/06/10 07:11:36;;;;;;;9.53;8.23;;;22.50;99.90;;;;;;5115977;28;20200;-81
2023/06/10 07:14:01;;;;;;;9.83;8.57;;;22.60;99.90;;;;;;5114528;28;20423;-82
2023/06/10 07:16:27;;;;;;;11.87;8.97;;;22.50;99.90;;;;;;5115288;28;20200;-82
2023/06/10 07:18:53;;;;;;;8.97;8.07;;;22.50;99.90;;;;;;5114973;28;20676;-83
2023/06/10 07:21:19;;;;;;;8.47;7.63;;;22.50;99.90;;;;;;5114783;28;20204;-80
2023/06/10 07:23:45;;;;;;;8.90;7.37;;;22.50;99.90;;;;;;5107810;28;20429;-84
2023/06/10 07:26:13;;;;;;;9.50;8.07;;;22.50;99.90;;;;;;5095923;28;20461;-83
2023/06/10 07:28:42;;;;;;;8.70;7.37;;;22.50;99.90;;;;;;5094137;28;20421;-86
2023/06/10 07:31:08;;;;;;;9.70;7.87;;;22.60;99.90;;;;;;5095330;28;20446;-82
2023/06/10 07:33:34;;;;;;;9.03;7.90;;;22.60;99.90;;;;;;5112078;28;20503;-86
2023/06/10 07:36:00;;;;;;;9.63;8.63;;;22.70;99.90;;;;;;5114056;28;20442;-82
2023/06/10 07:38:26;;;;;;;10.33;9.23;;;22.90;99.90;;;;;;5115551;28;20406;-81
2023/06/10 07:40:55;;;;;;;9.23;7.87;;;23.00;99.90;;;;;;5108852;28;20195;-84
2023/06/10 07:43:21;;;;;;;7.67;6.97;;;23.10;99.90;;;;;;5093341;28;20514;-81
2023/06/10 07:45:46;;;;;;;9.47;8.57;;;23.10;99.90;;;;;;5097827;28;20535;-90
2023/06/10 07:48:12;;;;;;;8.67;7.87;;;23.10;99.90;;;;;;5112510;28;20212;-85
2023/06/10 07:50:37;;;;;;;8.73;7.93;;;23.10;99.90;;;;;;5113225;28;20216;-88
2023/06/10 07:53:03;;;;;;;8.97;8.07;;;23.20;99.90;;;;;;5113315;28;20178;-85
2023/06/10 07:55:29;;;;;;;9.10;8.20;;;23.40;99.90;;;;;;5101398;28;20193;-83
2023/06/10 07:57:55;;;;;;;10.10;8.00;;;23.50;99.90;;;;;;5094307;28;20266;-82
2023/06/10 08:00:21;;;;;;;9.03;7.70;;;23.40;99.90;;;;;;5091591;28;20413;-86
2023/06/10 08:02:47;;;;;;;9.07;8.20;;;23.50;99.90;;;;;;5089392;28;20294;-84
2023/06/10 08:05:13;;;;;;;8.90;8.00;;;23.60;99.90;;;;;;5091282;28;20431;-83
2023/06/10 08:07:42;;;;;;;10.37;8.20;;;23.60;99.90;;;;;;5089057;28;21014;-81
2023/06/10 08:10:09;;;;;;;8.83;8.03;;;23.60;99.90;;;;;;5094331;28;20520;-80
2023/06/10 08:12:35;;;;;;;7.40;6.60;;;23.70;99.90;;;;;;5101454;28;20430;-84
2023/06/10 08:15:03;;;;;;;8.63;7.80;;;23.80;99.90;;;;;;5093171;28;20510;-82
2023/06/10 08:17:30;;;;;;;7.63;6.93;;;23.90;99.90;;;;;;5090778;28;20487;-83
2023/06/10 08:19:56;;;;;;;8.63;7.40;;;24.00;99.90;;;;;;5092128;28;20424;-84
2023/06/10 08:22:21;;;;;;;6.50;6.00;;;24.00;99.90;;;;;;5092407;28;20584;-85
2023/06/10 08:24:47;;;;;;;7.20;6.60;;;24.10;99.90;;;;;;5092501;28;20318;-88
2023/06/10 08:27:13;;;;;;;7.60;6.90;;;24.10;99.90;;;;;;5094304;28;20329;-84
2023/06/10 08:29:39;;;;;;;7.80;7.10;;;23.90;99.90;;;;;;5099863;28;20712;-88
2023/06/10 08:32:06;;;;;;;8.43;7.63;;;23.90;99.90;;;;;;5114530;28;20648;-89
2023/06/10 08:34:35;;;;;;;7.93;7.00;;;23.80;99.90;;;;;;5111990;28;20951;-88
2023/06/10 08:37:01;;;;;;;11.23;7.57;;;23.70;99.90;;;;;;5113167;28;20418;-84
2023/06/10 08:39:27;;;;;;;8.07;7.37;;;23.70;99.90;;;;;;5113697;28;20421;-84
2023/06/10 08:42:27;;;;;;;8.80;7.50;;;23.70;99.90;;;;;;5113985;28;20471;-84
2023/06/10 08:44:55;;;;;;;8.53;7.73;;;23.70;99.90;;;;;;5112705;28;20654;-82
2023/06/10 08:47:24;;;;;;;9.60;6.93;;;23.80;99.90;;;;;;5113625;28;21012;-82
2023/06/10 08:49:52;;;;;;;7.87;7.13;;;23.80;99.90;;;;;;5113737;28;20429;-78
2023/06/10 08:52:20;;;;;;;9.30;7.47;;;23.90;99.90;;;;;;5114082;28;20426;-85
2023/06/10 08:54:58;;;;;;;8.60;7.70;;;23.90;99.90;;;;;;5112333;28;20414;-82
2023/06/10 08:57:25;;;;;;;6.90;6.07;;;23.80;99.90;;;;;;5114055;28;20927;-80
2023/06/10 08:59:52;;;;;;;6.70;6.10;;;24.00;99.90;;;;;;5112577;28;20446;-84
2023/06/10 09:02:20;;;;;;;8.63;7.37;;;24.00;99.90;;;;;;5113920;28;20784;-83
2023/06/10 09:04:47;;;;;;;6.67;6.10;;;24.10;99.90;;;;;;5114405;28;20416;-88
2023/06/10 09:07:14;;;;;;;6.50;6.00;;;24.10;99.90;;;;;;5115032;28;20474;-86
2023/06/10 09:09:42;;;;;;;6.93;6.33;;;24.10;99.90;;;;;;5114004;28;20441;-86
2023/06/10 09:12:08;;;;;;;5.90;5.40;;;24.20;99.90;;;;;;5111909;28;20425;-83
2023/06/10 09:14:34;;;;;;;8.23;7.43;;;24.20;99.90;;;;;;5112179;28;20503;-82
2023/06/10 09:16:59;;;;;;;7.47;6.67;;;24.20;99.90;;;;;;5112261;28;20535;-88
2023/06/10 09:19:26;;;;;;;7.60;6.80;;;24.20;99.90;;;;;;5113840;28;20203;-86
2023/06/10 09:21:52;;;;;;;10.27;6.07;;;24.20;99.90;;;;;;5112354;28;20194;-84
2023/06/10 09:24:18;;;;;;;6.83;5.73;;;24.30;99.90;;;;;;5110604;28;20919;-78
2023/06/10 09:26:45;;;;;;;6.93;6.33;;;24.30;99.90;;;;;;5111437;28;20767;-84
2023/06/10 09:29:11;;;;;;;5.20;4.80;;;23.90;99.90;;;;;;5112577;27;20505;-85
2023/06/10 09:31:39;;;;;;;7.80;5.97;;;23.90;99.90;;;;;;5112254;28;20537;-85
2023/06/10 09:34:26;;;;;;;5.93;5.33;;;23.70;99.90;;;;;;5111922;28;20418;-84
2023/06/10 09:36:53;;;;;;;7.23;6.63;;;23.60;99.90;;;;;;5111896;28;20953;-80
2023/06/10 09:39:19;;;;;;;5.40;4.90;;;23.50;99.90;;;;;;5111913;28;20419;-76
2023/06/10 09:41:46;;;;;;;5.30;4.80;;;23.60;99.90;;;;;;5112096;28;20531;-82
2023/06/10 09:44:17;;;;;;;6.70;5.47;;;23.50;99.90;;;;;;5111252;28;20403;-77
2023/06/10 09:46:46;;;;;;;6.23;5.73;;;23.60;99.90;;;;;;5112146;28;20959;-85
2023/06/10 09:49:12;;;;;;;6.67;5.23;;;23.60;99.90;;;;;;5111572;28;20422;-79
2023/06/10 09:51:48;;;;;;;5.47;4.97;;;23.60;99.90;;;;;;5111781;28;20470;-80
2023/06/10 09:54:14;;;;;;;6.83;6.20;;;23.70;99.90;;;;;;5111731;28;20425;-80
2023/06/10 09:56:42;;;;;;;8.13;6.20;;;23.70;99.90;;;;;;5111666;28;20443;-81
2023/06/10 09:59:08;;;;;;;7.00;6.40;;;23.80;99.90;;;;;;5113128;28;20523;-84
2023/06/10 10:01:34;;;;;;;6.83;6.23;;;23.90;99.90;;;;;;5111651;28;20473;-84
2023/06/10 10:04:00;;;;;;;7.03;5.03;;;23.90;99.90;;;;;;5111547;28;20502;-82
2023/06/10 10:06:28;;;;;;;10.83;5.20;;;24.00;99.90;;;;;;5112373;28;20491;-85
2023/06/10 10:08:53;;;;;;;6.60;5.90;;;24.10;99.90;;;;;;5110143;28;20419;-84
2023/06/10 10:11:25;;;;;;;8.50;7.40;;;24.10;99.90;;;;;;5111175;28;20477;-84
2023/06/10 10:13:53;;;;;;;7.40;6.67;;;24.10;99.90;;;;;;5111251;28;20179;-79
2023/06/10 10:16:43;;;;;;;5.67;5.07;;;24.10;99.90;;;;;;5111255;28;20448;-77
2023/06/10 10:19:35;;;;;;;7.30;5.53;;;24.10;99.90;;;;;;5108552;28;20424;-78
2023/06/10 10:22:11;;;;;;;6.03;5.40;;;24.30;99.90;;;;;;5091534;28;20424;-78
2023/06/10 10:24:57;;;;;;;6.17;5.67;;;24.40;99.90;;;;;;5091020;28;20964;-79
2023/06/10 10:27:35;;;;;;;5.00;4.60;;;24.70;99.90;;;;;;5091052;28;20507;-81
2023/06/10 10:30:08;;;;;;;5.60;5.10;;;24.80;99.90;;;;;;5091473;28;20424;-84
2023/06/10 10:32:52;;;;;;;5.20;4.70;;;24.90;99.90;;;;;;5088338;28;20424;-87
2023/06/10 10:35:23;;;;;;;4.10;3.80;;;25.10;99.90;;;;;;5091174;28;20547;-85
2023/06/10 10:37:52;;;;;;;4.50;4.20;;;25.20;99.90;;;;;;5096531;28;20400;-86
2023/06/10 10:40:19;;;;;;;5.47;4.60;;;25.20;99.90;;;;;;5094798;28;20432;-81
2023/06/10 10:42:45;;;;;;;7.20;6.53;;;25.40;99.90;;;;;;5095772;28;20423;-84
2023/06/10 10:45:11;;;;;;;5.80;5.30;;;25.50;99.90;;;;;;5094552;28;20482;-83
2023/06/10 10:47:39;;;;;;;4.87;4.43;;;25.50;99.90;;;;;;5096500;28;20464;-83
2023/06/10 10:50:15;;;;;;;6.60;5.63;;;25.60;99.90;;;;;;5101088;28;20431;-85
2023/06/10 10:52:53;;;;;;;6.13;5.47;;;25.70;99.90;;;;;;5114814;28;20455;-81
2023/06/10 10:55:19;;;;;;;4.63;4.23;;;25.60;99.90;;;;;;5114699;28;20917;-79
2023/06/10 10:57:53;;;;;;;6.80;6.13;;;25.70;99.90;;;;;;5116901;28;20435;-83
2023/06/10 11:00:29;;;;;;;5.27;4.80;;;25.70;99.90;;;;;;5094496;28;20288;-81
2023/06/10 11:03:04;;;;;;;7.10;5.20;;;25.80;99.90;;;;;;5108158;28;20892;-81
2023/06/10 11:05:39;;;;;;;4.10;3.80;;;25.70;99.90;;;;;;5093309;28;20428;-75
2023/06/10 11:08:06;;;;;;;4.60;4.20;;;25.70;99.90;;;;;;5097864;28;20459;-77
2023/06/10 11:10:54;;;;;;;4.87;4.30;;;25.80;99.90;;;;;;5110628;28;20432;-79
2023/06/10 11:13:21;;;;;;;5.00;4.40;;;25.80;99.90;;;;;;5094102;28;20405;-83
2023/06/10 11:15:52;;;;;;;4.57;4.20;;;25.80;99.90;;;;;;5112897;28;20452;-78
2023/06/10 11:18:24;;;;;;;8.17;7.40;;;25.80;99.90;;;;;;5112418;28;20823;-80
2023/06/10 11:20:50;;;;;;;4.97;4.47;;;25.70;99.90;;;;;;5113886;28;20952;-80
2023/06/10 11:23:27;;;;;;;3.93;3.63;;;25.70;99.90;;;;;;5114352;28;20515;-80
2023/06/10 11:26:13;;;;;;;5.70;5.20;;;25.60;99.90;;;;;;5114292;28;20330;-79
2023/06/10 11:28:40;;;;;;;4.80;4.40;;;25.50;99.90;;;;;;5098357;28;20519;-83
2023/06/10 11:31:06;;;;;;;4.70;4.30;;;25.50;99.90;;;;;;5095515;28;20452;-84
2023/06/10 11:33:32;;;;;;;4.37;4.00;;;25.50;99.90;;;;;;5093727;28;20427;-84
2023/06/10 11:35:59;;;;;;;4.57;4.10;;;25.40;99.90;;;;;;5093397;28;20439;-86
2023/06/10 11:38:25;;;;;;;4.30;3.90;;;25.40;99.90;;;;;;5099699;28;20412;-82
2023/06/10 11:40:51;;;;;;;5.10;4.70;;;25.20;99.90;;;;;;5111727;28;20444;-86
2023/06/10 11:43:18;;;;;;;4.27;3.87;;;24.90;99.90;;;;;;5108836;28;22136;-81
2023/06/10 11:45:44;;;;;;;4.53;4.13;;;24.80;99.90;;;;;;5091666;28;20448;-77
2023/06/10 11:48:10;;;;;;;5.40;4.90;;;24.70;99.90;;;;;;5090804;28;20493;-81
2023/06/10 11:50:36;;;;;;;7.17;4.70;;;24.60;99.90;;;;;;5093180;28;20420;-85
2023/06/10 11:53:03;;;;;;;4.47;4.07;;;24.50;99.90;;;;;;5101194;28;20485;-79
2023/06/10 11:55:48;;;;;;;3.53;3.10;;;24.40;99.90;;;;;;5109171;28;20435;-77
2023/06/10 11:58:19;;;;;;;3.60;3.30;;;24.10;99.90;;;;;;5114485;28;20428;-85
2023/06/10 12:00:50;;;;;;;3.37;3.07;;;23.90;99.90;;;;;;5115305;28;20431;-79
2023/06/10 12:03:17;;;;;;;4.20;2.70;;;23.90;99.90;;;;;;5114819;28;20825;-80
2023/06/10 12:06:06;;;;;;;2.47;2.17;;;23.90;99.90;;;;;;5114460;28;20781;-80
2023/06/10 12:08:32;;;;;;;2.60;2.33;;;23.90;99.90;;;;;;5115525;28;20471;-84
2023/06/10 12:10:59;;;;;;;3.53;1.97;;;23.90;99.90;;;;;;5115388;28;20505;-84
2023/06/10 12:13:28;;;;;;;2.50;2.30;;;23.90;99.90;;;;;;5114051;28;20919;-82
2023/06/10 12:15:54;;;;;;;3.93;3.10;;;23.90;99.90;;;;;;5114010;28;20766;-87
2023/06/10 12:18:24;;;;;;;3.67;2.90;;;23.80;99.90;;;;;;5115160;28;20418;-84
2023/06/10 12:20:51;;;;;;;4.17;3.00;;;23.80;99.90;;;;;;5115126;28;20981;-81
2023/06/10 12:23:17;;;;;;;3.57;3.13;;;23.80;99.90;;;;;;5113875;28;20513;-87
2023/06/10 12:25:53;;;;;;;4.17;2.93;;;23.70;99.90;;;;;;5115086;28;20461;-84
2023/06/10 12:28:26;;;;;;;6.13;3.43;;;23.70;99.90;;;;;;5115539;28;20515;-80
2023/06/10 12:31:07;;;;;;;7.07;3.20;;;23.70;99.90;;;;;;5115840;28;20509;-81
2023/06/10 12:33:33;;;;;;;6.50;3.43;;;23.70;99.90;;;;;;5113753;28;20471;-83
2023/06/10 12:36:00;;;;;;;4.50;4.10;;;23.60;99.90;;;;;;5113713;28;20816;-81
2023/06/10 12:38:29;;;;;;;4.73;4.33;;;23.60;99.90;;;;;;5117151;27;20191;-83